Time;durP1;ratioP1;P1;durP2;ratioP2;P2;SDS_P1;SDS_P2;PMS_P1;PMS_P2;Temp;Humidity;BMP_temperature;BMP_pressure;BME280_temperature;BME280_humidity;BME280_pressure;Samples;Min_cycle;Max_cycle;Signal;HPM_P1;HPM_P2
2022/10/03 00:00:18;;;;;;;24.88;11.40;;;14.00;99.90;;;;;;5073405;28;20113;-63
2022/10/03 00:02:47;;;;;;;21.52;10.10;;;14.00;99.90;;;;;;5073015;28;20028;-63
2022/10/03 00:05:55;;;;;;;28.17;11.50;;;13.90;99.90;;;;;;5072889;28;20027;-63
2022/10/03 00:08:39;;;;;;;31.40;12.93;;;13.70;99.90;;;;;;5072867;28;20478;-63
2022/10/03 00:11:36;;;;;;;12.20;8.45;;;13.70;99.90;;;;;;5072442;28;20037;-63
2022/10/03 00:14:27;;;;;;;11.25;7.95;;;13.60;99.90;;;;;;5072852;28;20386;-63
2022/10/03 00:17:12;;;;;;;19.50;10.43;;;13.60;99.90;;;;;;5072795;28;20052;-63
2022/10/03 00:19:52;;;;;;;14.07;8.88;;;13.60;99.90;;;;;;5072735;28;20431;-63
2022/10/03 00:22:40;;;;;;;11.32;8.40;;;13.60;99.90;;;;;;5072498;28;20031;-63
2022/10/03 00:25:17;;;;;;;19.25;9.38;;;13.60;99.90;;;;;;5072550;28;20052;-63
2022/10/03 00:28:25;;;;;;;18.50;9.80;;;13.50;99.90;;;;;;5072521;28;20042;-63
2022/10/03 00:31:00;;;;;;;18.55;9.85;;;13.50;99.90;;;;;;5072250;28;20058;-63
2022/10/03 00:33:31;;;;;;;18.92;9.60;;;13.50;99.90;;;;;;5072804;28;20030;-63
2022/10/03 00:36:30;;;;;;;17.20;9.65;;;13.40;99.90;;;;;;5071830;28;20506;-63
2022/10/03 00:39:24;;;;;;;32.58;11.68;;;13.40;99.90;;;;;;5072311;28;20033;-63
2022/10/03 00:42:06;;;;;;;30.70;11.57;;;13.50;99.90;;;;;;5072173;28;20054;-63
2022/10/03 00:44:49;;;;;;;27.38;10.90;;;13.40;99.90;;;;;;5072437;28;20039;-63
2022/10/03 00:47:45;;;;;;;37.13;12.00;;;13.40;99.90;;;;;;5072065;28;20111;-63
2022/10/03 00:50:30;;;;;;;17.17;9.35;;;13.40;99.90;;;;;;5071959;28;20036;-63
2022/10/03 00:53:19;;;;;;;30.48;12.10;;;13.40;99.90;;;;;;5072162;28;20060;-63
2022/10/03 00:56:06;;;;;;;17.10;10.38;;;13.30;99.90;;;;;;5072356;28;20040;-63
2022/10/03 00:58:51;;;;;;;16.98;9.20;;;13.30;99.90;;;;;;5072223;28;20028;-63
2022/10/03 01:01:40;;;;;;;12.15;7.90;;;13.30;99.90;;;;;;5072126;28;20017;-63
2022/10/03 01:04:25;;;;;;;11.52;6.90;;;13.20;99.90;;;;;;5070918;28;20028;-63
2022/10/03 01:07:13;;;;;;;9.20;6.65;;;13.20;99.90;;;;;;5072003;28;20036;-63
2022/10/03 01:09:54;;;;;;;16.17;8.25;;;13.10;99.90;;;;;;5071821;28;20372;-63
2022/10/03 01:12:47;;;;;;;18.00;8.13;;;13.10;99.90;;;;;;5072064;28;20046;-63
2022/10/03 01:15:54;;;;;;;19.50;9.65;;;13.10;99.90;;;;;;5072025;28;20391;-63
2022/10/03 01:18:39;;;;;;;17.35;8.32;;;13.10;99.90;;;;;;5071105;28;20051;-63
2022/10/03 01:21:39;;;;;;;16.23;7.72;;;13.00;99.90;;;;;;5071567;28;20021;-63
2022/10/03 01:24:49;;;;;;;23.08;8.75;;;12.90;99.90;;;;;;5071734;28;20104;-62
2022/10/03 01:27:27;;;;;;;27.73;10.98;;;12.80;99.90;;;;;;5010222;28;20408;-63
2022/10/03 01:32:54;;;;;;;26.42;10.02;;;12.70;99.90;;;;;;5010065;28;20048;-63
2022/10/03 01:35:29;;;;;;;29.27;10.70;;;12.70;99.90;;;;;;5009403;28;20033;-63
2022/10/03 01:38:35;;;;;;;67.18;15.52;;;12.70;99.90;;;;;;5009884;28;20038;-63
2022/10/03 01:41:19;;;;;;;25.15;9.75;;;12.60;99.90;;;;;;4932192;29;20079;-63
2022/10/03 01:43:50;;;;;;;48.05;13.65;;;12.60;99.90;;;;;;4932397;29;20049;-63
2022/10/03 01:46:37;;;;;;;41.42;11.93;;;12.50;99.90;;;;;;4932034;29;20114;-63
2022/10/03 01:49:21;;;;;;;26.63;10.55;;;12.40;99.90;;;;;;4932229;29;20119;-63
2022/10/03 01:51:59;;;;;;;17.90;8.20;;;12.40;99.90;;;;;;4931788;29;20094;-63
2022/10/03 01:54:43;;;;;;;16.23;6.90;;;12.30;99.90;;;;;;4932229;29;20107;-62
2022/10/03 01:57:29;;;;;;;27.98;10.35;;;12.20;99.90;;;;;;4932723;29;20040;-63
2022/10/03 02:00:06;;;;;;;26.10;9.38;;;12.20;99.90;;;;;;4932270;29;20036;-63
2022/10/03 02:03:01;;;;;;;18.75;8.23;;;12.10;99.90;;;;;;4958159;28;20057;-63
2022/10/03 02:06:08;;;;;;;15.30;6.82;;;12.10;99.90;;;;;;4989642;28;20126;-62
2022/10/03 02:09:05;;;;;;;14.13;7.00;;;12.00;99.90;;;;;;4987482;28;20100;-63
2022/10/03 02:11:41;;;;;;;13.45;6.60;;;11.90;99.90;;;;;;4999865;28;20050;-62
2022/10/03 02:14:25;;;;;;;8.13;5.97;;;11.80;99.90;;;;;;5009328;28;20097;-63
2022/10/03 02:16:56;;;;;;;;;;;11.80;99.90;;;;;;5013224;28;20081;-62
2022/10/03 02:19:21;;;;;;;8.00;5.43;;;11.70;99.90;;;;;;5050817;28;19905;-63
2022/10/03 02:21:54;;;;;;;9.95;5.75;;;11.70;99.90;;;;;;5054005;28;20033;-63
2022/10/03 02:24:32;;;;;;;15.10;6.13;;;11.60;99.90;;;;;;5054761;28;20033;-64
2022/10/03 02:27:37;;;;;;;7.70;5.10;;;11.60;99.90;;;;;;5053524;28;20025;-63
2022/10/03 02:30:30;;;;;;;12.35;5.20;;;11.50;99.90;;;;;;5054712;28;20032;-64
2022/10/03 02:33:27;;;;;;;9.45;5.22;;;11.50;99.90;;;;;;5054945;28;20033;-63
2022/10/03 02:36:13;;;;;;;11.13;4.93;;;11.50;99.90;;;;;;5054636;28;20396;-61
2022/10/03 02:39:03;;;;;;;8.00;3.72;;;11.50;99.90;;;;;;5054433;28;20131;-64
2022/10/03 02:41:48;;;;;;;11.00;4.32;;;11.40;99.90;;;;;;5054374;28;20485;-63
2022/10/03 02:44:25;;;;;;;7.68;4.32;;;11.40;99.90;;;;;;5055708;28;20032;-64
2022/10/03 02:47:28;;;;;;;11.52;4.00;;;11.40;99.90;;;;;;5074519;28;20061;-64
2022/10/03 02:50:13;;;;;;;12.13;4.38;;;11.30;99.90;;;;;;5073214;28;20494;-63
2022/10/03 02:52:57;;;;;;;11.82;4.65;;;11.20;99.90;;;;;;5074606;28;20036;-64
2022/10/03 02:55:30;;;;;;;;;;;11.30;99.90;;;;;;5074872;28;20035;-64
2022/10/03 02:58:05;;;;;;;9.93;4.30;;;11.30;99.90;;;;;;5074658;28;19905;-64
2022/10/03 03:01:05;;;;;;;9.13;3.80;;;11.30;99.90;;;;;;5073085;28;20024;-63
2022/10/03 03:04:03;;;;;;;15.85;5.10;;;11.20;99.90;;;;;;5073855;28;20020;-64
2022/10/03 03:06:29;;;;;;;11.30;3.65;;;11.30;99.90;;;;;;5074133;28;20024;-63
2022/10/03 03:09:17;;;;;;;8.57;3.60;;;11.20;99.90;;;;;;5073974;28;20028;-63
2022/10/03 03:12:19;;;;;;;7.10;3.47;;;11.20;99.90;;;;;;5073774;28;20037;-63
2022/10/03 03:14:58;;;;;;;9.25;3.95;;;11.20;99.90;;;;;;5073906;28;20033;-63
2022/10/03 03:17:30;;;;;;;8.00;3.70;;;11.20;99.90;;;;;;5073283;28;20052;-63
2022/10/03 03:19:59;;;;;;;9.18;3.60;;;11.30;99.90;;;;;;5073852;28;20056;-63
2022/10/03 03:22:31;;;;;;;9.07;3.60;;;11.40;99.90;;;;;;5073788;28;20027;-63
2022/10/03 03:25:02;;;;;;;5.88;3.38;;;11.50;99.90;;;;;;5073859;28;20025;-63
2022/10/03 03:27:55;;;;;;;9.55;4.28;;;11.50;99.90;;;;;;5073726;28;20111;-63
2022/10/03 03:30:35;;;;;;;8.93;3.88;;;11.60;99.90;;;;;;5073552;28;20028;-64
2022/10/03 03:33:33;;;;;;;7.10;4.57;;;11.70;99.90;;;;;;5073105;28;20039;-63
2022/10/03 03:36:06;;;;;;;9.90;5.68;;;11.80;99.90;;;;;;5011336;28;20026;-64
2022/10/03 03:38:48;;;;;;;12.02;6.10;;;12.00;99.90;;;;;;5011550;28;20038;-64
2022/10/03 03:41:44;;;;;;;11.82;5.97;;;12.00;99.90;;;;;;5011639;28;20041;-63
2022/10/03 03:44:43;;;;;;;11.00;6.10;;;12.00;99.90;;;;;;5011676;28;20026;-63
2022/10/03 03:47:36;;;;;;;9.30;6.68;;;12.00;99.90;;;;;;5011180;28;20038;-63
2022/10/03 03:50:26;;;;;;;10.87;6.73;;;12.00;99.90;;;;;;5011841;28;20485;-64
2022/10/03 03:53:28;;;;;;;11.80;6.03;;;11.90;99.90;;;;;;5011377;28;20053;-64
2022/10/03 03:56:25;;;;;;;12.43;7.13;;;11.90;99.90;;;;;;5011260;28;20040;-64
2022/10/03 03:59:32;;;;;;;14.63;6.18;;;11.90;99.90;;;;;;5011359;28;20042;-64
2022/10/03 04:02:26;;;;;;;12.77;6.20;;;11.90;99.90;;;;;;5008825;28;20129;-63
2022/10/03 04:05:23;;;;;;;13.95;6.65;;;11.80;99.90;;;;;;5007469;28;20117;-63
2022/10/03 04:08:15;;;;;;;9.13;6.57;;;11.70;99.90;;;;;;5011158;28;20018;-64
2022/10/03 04:11:02;;;;;;;13.50;6.38;;;11.60;99.90;;;;;;5010737;28;20068;-63
2022/10/03 04:13:31;;;;;;;8.25;5.45;;;11.50;99.90;;;;;;5050256;28;20045;-63
2022/10/03 04:19:19;;;;;;;9.43;5.75;;;11.50;99.90;;;;;;5053093;28;20067;-63
2022/10/03 04:21:50;;;;;;;12.25;6.43;;;11.40;99.90;;;;;;5052690;28;20028;-64
2022/10/03 04:24:30;;;;;;;14.90;7.13;;;11.40;99.90;;;;;;5052651;28;20028;-63
2022/10/03 04:27:29;;;;;;;12.32;7.18;;;11.40;99.90;;;;;;5052450;28;20434;-64
2022/10/03 04:30:10;;;;;;;11.48;5.90;;;11.30;99.90;;;;;;5052161;28;20028;-63
2022/10/03 04:32:45;;;;;;;11.93;6.45;;;11.30;99.90;;;;;;5052740;28;20036;-63
2022/10/03 04:35:29;;;;;;;13.32;6.35;;;11.40;99.90;;;;;;5052887;28;20029;-63
2022/10/03 04:38:04;;;;;;;12.65;6.15;;;11.30;99.90;;;;;;5052370;28;20115;-63
2022/10/03 04:40:42;;;;;;;13.05;5.43;;;11.30;99.90;;;;;;5052281;28;20029;-64
2022/10/03 04:43:45;;;;;;;10.60;5.45;;;11.30;99.90;;;;;;5051754;28;20059;-63
2022/10/03 04:46:26;;;;;;;15.65;6.03;;;11.40;99.90;;;;;;5069529;28;20031;-63
2022/10/03 04:49:14;;;;;;;13.68;5.93;;;11.40;99.90;;;;;;5072214;28;20036;-63
2022/10/03 04:52:06;;;;;;;11.35;5.40;;;11.40;99.90;;;;;;5072139;28;20064;-64
2022/10/03 04:55:09;;;;;;;14.48;5.88;;;11.30;99.90;;;;;;5072200;28;20471;-63
2022/10/03 04:58:12;;;;;;;18.00;7.35;;;11.30;99.90;;;;;;4990551;28;20061;-64
2022/10/03 05:01:05;;;;;;;14.25;5.97;;;11.30;99.90;;;;;;4990869;28;20037;-63
2022/10/03 05:04:09;;;;;;;16.63;5.53;;;11.20;99.90;;;;;;4990532;28;20461;-63
2022/10/03 05:07:11;;;;;;;13.70;5.45;;;11.10;99.90;;;;;;4990435;28;20035;-63
2022/10/03 05:09:53;;;;;;;12.00;5.40;;;11.00;99.90;;;;;;4990673;28;20521;-63
2022/10/03 05:12:38;;;;;;;10.23;4.80;;;10.90;99.90;;;;;;4990102;28;20134;-63
2022/10/03 05:15:23;;;;;;;15.25;6.45;;;10.80;99.90;;;;;;4990479;28;20465;-63
2022/10/03 05:17:57;;;;;;;12.65;6.30;;;10.80;99.90;;;;;;4990654;28;21202;-63
2022/10/03 05:20:32;;;;;;;9.90;5.10;;;10.80;99.90;;;;;;4990338;28;20030;-63
2022/10/03 05:23:16;;;;;;;13.63;5.13;;;10.70;99.90;;;;;;4990748;28;20454;-63
2022/10/03 05:25:54;;;;;;;11.63;4.75;;;10.70;99.90;;;;;;4990225;28;20027;-62
2022/10/03 05:28:38;;;;;;;8.77;4.90;;;10.60;99.90;;;;;;4990028;28;20505;-62
2022/10/03 05:31:43;;;;;;;;;;;10.60;99.90;;;;;;5007706;28;20093;-63
2022/10/03 05:34:09;;;;;;;;;;;10.60;99.90;;;;;;4991048;28;19989;-62
2022/10/03 05:36:55;;;;;;;13.55;6.75;;;10.60;99.90;;;;;;4990337;28;20427;-63
2022/10/03 05:39:28;;;;;;;16.73;8.35;;;10.60;99.90;;;;;;4989238;28;20035;-63
2022/10/03 05:42:28;;;;;;;13.20;7.20;;;10.70;99.90;;;;;;4989602;28;20026;-63
2022/10/03 05:45:20;;;;;;;13.77;6.25;;;10.60;99.90;;;;;;4996037;28;20034;-62
2022/10/03 05:47:58;;;;;;;15.10;6.15;;;10.50;99.90;;;;;;5009085;28;20061;-63
2022/10/03 05:50:56;;;;;;;10.82;5.93;;;10.50;99.90;;;;;;5009898;28;20054;-62
2022/10/03 05:53:59;;;;;;;11.10;6.70;;;10.40;99.90;;;;;;5009986;28;20038;-62
2022/10/03 05:56:53;;;;;;;12.05;6.78;;;10.40;99.90;;;;;;4995242;28;20076;-63
2022/10/03 05:59:24;;;;;;;14.85;7.43;;;10.40;99.90;;;;;;4974357;28;20035;-63
2022/10/03 06:02:05;;;;;;;11.60;6.68;;;10.40;99.90;;;;;;4974554;28;20577;-62
2022/10/03 06:04:58;;;;;;;14.27;6.63;;;10.40;99.90;;;;;;4980980;28;20038;-62
2022/10/03 06:07:39;;;;;;;9.98;5.47;;;10.40;99.90;;;;;;4994043;28;20134;-63
2022/10/03 06:10:33;;;;;;;13.10;6.55;;;10.40;99.90;;;;;;4993475;28;20520;-63
2022/10/03 06:13:05;;;;;;;17.30;6.38;;;10.40;99.90;;;;;;5013298;28;20042;-62
2022/10/03 06:15:55;;;;;;;13.38;6.50;;;10.40;99.90;;;;;;5013291;28;20033;-62
2022/10/03 06:18:47;;;;;;;13.00;6.75;;;10.40;99.90;;;;;;5013087;28;20401;-62
2022/10/03 06:21:40;;;;;;;13.48;6.32;;;10.40;99.90;;;;;;5013026;28;20101;-62
2022/10/03 06:24:37;;;;;;;15.13;6.88;;;10.50;99.90;;;;;;5012813;28;20030;-62
2022/10/03 06:27:21;;;;;;;8.02;6.50;;;11.00;99.90;;;;;;5012510;28;20040;-62
2022/10/03 06:30:10;;;;;;;13.02;5.25;;;11.50;99.90;;;;;;5013113;28;20137;-63
2022/10/03 06:33:03;;;;;;;9.02;4.80;;;12.10;99.90;;;;;;5012783;28;20054;-63
2022/10/03 06:35:51;;;;;;;12.05;4.00;;;12.30;99.90;;;;;;5022941;28;20068;-62
2022/10/03 06:38:51;;;;;;;10.10;4.20;;;12.90;99.90;;;;;;5054574;28;20536;-63
2022/10/03 06:41:38;;;;;;;13.23;4.05;;;13.60;99.90;;;;;;5054699;28;20036;-63
2022/10/03 06:44:49;;;;;;;11.00;3.10;;;14.20;99.90;;;;;;5054412;28;20570;-63
2022/10/03 06:47:35;;;;;;;9.00;3.10;;;14.50;99.90;;;;;;5012487;28;20133;-63
2022/10/03 06:50:18;;;;;;;8.38;2.97;;;15.40;99.90;;;;;;5012940;28;20121;-63
2022/10/03 06:52:56;;;;;;;9.88;2.60;;;15.70;99.90;;;;;;5012159;28;20050;-63
2022/10/03 06:55:40;;;;;;;6.07;2.28;;;16.10;99.90;;;;;;5011954;28;20496;-63
2022/10/03 06:58:27;;;;;;;7.10;2.80;;;16.10;99.90;;;;;;5012234;28;20109;-63
2022/10/03 07:01:11;;;;;;;10.35;3.00;;;15.30;99.90;;;;;;5012365;28;20036;-63
2022/10/03 07:04:01;;;;;;;10.20;2.42;;;15.80;99.90;;;;;;5012658;28;20038;-63
2022/10/03 07:06:47;;;;;;;8.45;2.50;;;17.00;99.90;;;;;;5011470;28;20105;-63
2022/10/03 07:09:30;;;;;;;8.68;2.63;;;18.00;99.90;;;;;;5011842;28;20040;-64
2022/10/03 07:12:17;;;;;;;9.18;2.22;;;17.60;99.90;;;;;;5025577;28;20048;-64
2022/10/03 07:15:21;;;;;;;8.07;2.42;;;17.30;99.90;;;;;;5031894;28;20072;-63
2022/10/03 07:18:05;;;;;;;9.35;3.17;;;19.60;99.90;;;;;;5031818;28;20045;-63
2022/10/03 07:21:02;;;;;;;9.15;2.90;;;19.10;99.90;;;;;;5031646;28;20059;-63
2022/10/03 07:23:49;;;;;;;7.68;2.50;;;20.60;99.90;;;;;;4982641;28;20129;-64
2022/10/03 07:26:23;;;;;;;7.45;2.58;;;20.00;99.90;;;;;;5012241;28;20034;-63
2022/10/03 07:29:16;;;;;;;11.63;2.30;;;20.60;99.90;;;;;;5011944;28;20030;-64
2022/10/03 07:31:52;;;;;;;8.30;2.50;;;22.10;99.90;;;;;;5011580;28;20091;-64
2022/10/03 07:34:38;;;;;;;12.20;2.90;;;22.10;99.90;;;;;;5011815;28;20045;-64
2022/10/03 07:40:34;;;;;;;6.35;2.78;;;22.00;99.90;;;;;;5011637;28;20535;-64
2022/10/03 07:43:18;;;;;;;8.50;2.85;;;21.60;99.90;;;;;;5011484;28;20029;-64
2022/10/03 07:46:03;;;;;;;10.18;2.88;;;22.20;99.90;;;;;;5024818;28;20036;-64
2022/10/03 07:48:37;;;;;;;8.00;2.75;;;24.60;99.90;;;;;;5031249;28;20041;-64
2022/10/03 07:51:22;;;;;;;7.63;2.80;;;24.60;99.90;;;;;;5030832;28;20025;-64
2022/10/03 07:54:28;;;;;;;9.48;2.55;;;24.20;99.90;;;;;;5031015;28;20095;-64
2022/10/03 07:57:15;;;;;;;5.32;2.00;;;25.70;99.90;;;;;;5031119;28;20032;-64
2022/10/03 08:00:14;;;;;;;6.43;2.13;;;24.00;99.90;;;;;;5049408;28;20028;-64
2022/10/03 08:02:58;;;;;;;5.13;2.00;;;24.50;99.90;;;;;;5073050;28;20510;-64
2022/10/03 08:05:53;;;;;;;6.13;2.42;;;24.90;99.90;;;;;;5073184;28;20027;-64
2022/10/03 08:08:49;;;;;;;4.57;1.80;;;25.90;99.90;;;;;;5072772;28;20036;-65
2022/10/03 08:11:39;;;;;;;7.15;2.08;;;25.90;99.90;;;;;;5073001;28;20379;-64
2022/10/03 08:14:21;;;;;;;5.00;1.95;;;24.20;99.90;;;;;;5072821;28;20104;-65
2022/10/03 08:16:53;;;;;;;4.67;1.67;;;26.10;99.90;;;;;;5072877;28;20048;-65
2022/10/03 08:19:34;;;;;;;5.30;1.92;;;24.30;99.90;;;;;;5071502;28;20028;-65
2022/10/03 08:22:44;;;;;;;5.03;2.03;;;26.50;99.90;;;;;;5071574;28;20025;-65
2022/10/03 08:25:28;;;;;;;7.82;2.15;;;24.90;99.90;;;;;;5011340;28;20049;-64
2022/10/03 08:28:14;;;;;;;6.43;1.80;;;28.20;99.90;;;;;;5010674;28;20493;-64
2022/10/03 08:30:52;;;;;;;6.45;1.77;;;26.10;99.90;;;;;;5010527;28;20037;-64
2022/10/03 08:33:25;;;;;;;4.70;1.90;;;26.00;99.90;;;;;;5010616;28;20053;-64
2022/10/03 08:36:12;;;;;;;4.40;2.00;;;26.20;99.90;;;;;;5010427;28;20029;-64
2022/10/03 08:38:41;;;;;;;5.18;1.88;;;26.30;99.90;;;;;;5010803;28;20054;-64
2022/10/03 08:41:35;;;;;;;3.80;1.80;;;27.50;99.90;;;;;;5010514;28;20057;-64
2022/10/03 08:44:22;;;;;;;5.93;1.80;;;27.50;99.90;;;;;;5010775;28;20528;-64
2022/10/03 08:47:01;;;;;;;5.68;1.60;;;27.80;99.90;;;;;;5010552;28;20133;-64
2022/10/03 08:49:51;;;;;;;5.32;1.98;;;26.40;99.90;;;;;;5010321;28;20481;-64
2022/10/03 08:52:35;;;;;;;4.63;1.73;;;26.00;99.90;;;;;;5009835;28;20116;-65
2022/10/03 08:55:13;;;;;;;5.70;1.58;;;27.60;99.90;;;;;;5010338;28;20032;-63
2022/10/03 08:58:06;;;;;;;7.15;1.95;;;24.30;99.90;;;;;;5010295;28;20544;-63
2022/10/03 09:01:05;;;;;;;5.53;1.90;;;27.50;99.90;;;;;;5072418;28;20032;-63
2022/10/03 09:04:08;;;;;;;4.50;1.77;;;27.00;99.90;;;;;;5072390;28;20028;-63
2022/10/03 09:06:46;;;;;;;5.57;1.70;;;27.30;99.90;;;;;;5071673;28;20446;-62
2022/10/03 09:09:21;;;;;;;5.75;2.08;;;27.90;99.90;;;;;;5072040;28;20028;-63
2022/10/03 09:12:19;;;;;;;5.75;2.00;;;27.10;99.90;;;;;;5071659;28;20036;-68
2022/10/03 09:14:57;;;;;;;7.55;2.08;;;28.70;99.90;;;;;;5009794;28;20034;-63
2022/10/03 09:17:56;;;;;;;6.68;2.15;;;28.60;99.90;;;;;;5009861;28;20046;-63
2022/10/03 09:20:52;;;;;;;5.00;1.90;;;29.30;99.90;;;;;;5009625;28;20465;-63
2022/10/03 09:23:51;;;;;;;4.88;1.98;;;28.30;99.90;;;;;;5010003;28;20065;-63
2022/10/03 09:26:42;;;;;;;5.53;1.90;;;25.90;99.90;;;;;;5010014;28;20049;-63
2022/10/03 09:29:44;;;;;;;5.97;2.08;;;27.50;99.90;;;;;;5010418;28;20161;-63
2022/10/03 09:32:28;;;;;;;4.00;1.70;;;30.30;99.90;;;;;;5013593;28;20540;-63
2022/10/03 09:35:21;;;;;;;5.03;1.83;;;30.80;98.80;;;;;;5013641;28;20037;-63
2022/10/03 09:37:47;;;;;;;6.40;1.92;;;27.60;99.90;;;;;;5013493;28;20037;-63
2022/10/03 09:40:18;;;;;;;4.63;1.83;;;25.60;99.90;;;;;;5014227;28;20514;-63
2022/10/03 09:43:21;;;;;;;4.53;1.70;;;28.10;99.90;;;;;;5013911;28;20496;-63
2022/10/03 09:46:16;;;;;;;4.80;1.90;;;28.60;99.90;;;;;;5013911;28;20042;-63
2022/10/03 09:49:02;;;;;;;4.63;1.70;;;27.40;99.90;;;;;;4958344;28;20438;-64
2022/10/03 09:51:50;;;;;;;5.35;1.88;;;27.80;99.90;;;;;;4998492;28;20153;-63
2022/10/03 09:54:34;;;;;;;3.80;1.83;;;28.80;99.60;;;;;;5033325;28;20400;-63
2022/10/03 09:57:05;;;;;;;4.72;1.70;;;28.80;98.40;;;;;;5033333;28;20026;-63
2022/10/03 10:00:01;;;;;;;4.18;1.90;;;28.80;98.70;;;;;;5033292;28;20436;-63
2022/10/03 10:03:10;;;;;;;3.15;1.63;;;32.40;96.30;;;;;;5033674;28;20076;-63
2022/10/03 10:06:13;;;;;;;4.85;1.80;;;29.50;96.90;;;;;;4974308;28;20074;-62
2022/10/03 10:08:47;;;;;;;4.07;1.92;;;30.80;96.20;;;;;;4974064;28;20117;-63
2022/10/03 10:11:38;;;;;;;4.97;1.85;;;30.90;96.00;;;;;;4973881;28;20038;-62
2022/10/03 10:14:19;;;;;;;3.78;1.88;;;32.10;94.00;;;;;;4974324;28;20118;-62
2022/10/03 10:17:08;;;;;;;4.95;1.80;;;31.40;93.80;;;;;;4974071;28;20101;-63
2022/10/03 10:19:45;;;;;;;3.00;1.73;;;29.80;93.50;;;;;;4973947;28;20134;-63
2022/10/03 10:22:19;;;;;;;4.95;1.65;;;29.30;96.60;;;;;;4973870;28;20453;-62
2022/10/03 10:25:23;;;;;;;5.60;1.80;;;32.10;94.50;;;;;;4977277;28;20031;-63
2022/10/03 10:28:19;;;;;;;4.47;1.80;;;30.50;94.50;;;;;;5032777;28;20029;-63
2022/10/03 10:31:14;;;;;;;3.42;1.70;;;32.10;94.70;;;;;;5032563;28;20037;-63
2022/10/03 10:33:45;;;;;;;3.20;1.67;;;33.70;91.90;;;;;;5023840;28;20037;-63
2022/10/03 10:36:34;;;;;;;5.30;1.80;;;32.00;92.50;;;;;;5032585;28;20029;-63
2022/10/03 10:39:19;;;;;;;5.72;1.85;;;31.40;93.20;;;;;;5032470;28;20111;-63
2022/10/03 10:42:07;;;;;;;3.80;2.00;;;32.70;92.00;;;;;;5049480;28;20484;-63
2022/10/03 10:44:44;;;;;;;5.78;1.98;;;32.30;92.10;;;;;;5058566;28;20021;-63
2022/10/03 10:47:19;;;;;;;4.40;2.00;;;32.60;92.00;;;;;;5074182;28;20510;-64
2022/10/03 10:50:06;;;;;;;2.75;1.63;;;32.80;91.60;;;;;;5074580;28;20029;-63
2022/10/03 10:52:49;;;;;;;3.95;1.60;;;35.10;89.20;;;;;;5074241;28;20044;-63
2022/10/03 10:55:30;;;;;;;3.45;1.75;;;32.90;90.90;;;;;;5074239;28;20050;-63
2022/10/03 10:58:32;;;;;;;3.03;1.63;;;33.80;90.60;;;;;;5074753;28;20020;-63
2022/10/03 11:01:16;;;;;;;2.90;1.63;;;33.70;89.10;;;;;;5074454;28;20031;-63
2022/10/03 11:04:18;;;;;;;4.35;1.83;;;32.50;89.30;;;;;;5074713;28;20064;-63
2022/10/03 11:06:56;;;;;;;4.25;1.55;;;30.90;90.90;;;;;;5074374;28;20043;-63
2022/10/03 11:09:59;;;;;;;5.22;1.80;;;29.70;92.30;;;;;;5073950;28;20491;-63
2022/10/03 11:12:43;;;;;;;4.97;2.00;;;27.10;95.10;;;;;;5073737;28;20044;-64
2022/10/03 11:15:27;;;;;;;;;;;27.30;97.00;;;;;;5074045;28;20032;-63
2022/10/03 11:18:14;;;;;;;2.55;1.60;;;27.20;95.90;;;;;;5073915;28;19938;-63
2022/10/03 11:21:00;;;;;;;3.55;1.80;;;27.00;96.50;;;;;;5073655;28;20056;-63
2022/10/03 11:23:44;;;;;;;5.18;1.77;;;26.70;97.00;;;;;;5073879;28;20050;-63
2022/10/03 11:26:29;;;;;;;5.72;1.95;;;27.10;98.00;;;;;;5074163;28;20411;-63
2022/10/03 11:29:19;;;;;;;2.53;1.60;;;27.30;97.50;;;;;;5072392;28;20055;-63
2022/10/03 11:31:57;;;;;;;3.47;2.15;;;27.30;96.50;;;;;;5073622;28;20449;-63
2022/10/03 11:34:57;;;;;;;4.90;1.80;;;27.30;97.20;;;;;;5073641;28;20025;-63
2022/10/03 11:37:42;;;;;;;4.35;1.77;;;27.10;97.50;;;;;;5073514;28;20031;-63
2022/10/03 11:40:31;;;;;;;3.65;1.90;;;26.20;97.10;;;;;;5073538;28;20028;-63
2022/10/03 11:43:22;;;;;;;4.40;1.70;;;25.10;99.90;;;;;;5073435;28;20399;-64
2022/10/03 11:45:48;;;;;;;3.38;1.85;;;24.80;99.90;;;;;;5011339;28;20116;-63
2022/10/03 11:48:40;;;;;;;4.65;1.95;;;24.90;98.80;;;;;;5011550;28;20492;-64
2022/10/03 11:51:17;;;;;;;3.58;1.73;;;25.00;99.00;;;;;;4972205;28;20046;-63
2022/10/03 11:54:12;;;;;;;3.30;1.52;;;25.00;98.70;;;;;;4956192;28;20034;-63
2022/10/03 11:56:46;;;;;;;4.15;1.95;;;24.80;99.80;;;;;;4955964;28;20138;-63
2022/10/03 11:59:26;;;;;;;3.92;1.65;;;24.40;99.90;;;;;;4972275;28;20034;-63
2022/10/03 12:02:02;;;;;;;5.38;1.90;;;25.80;99.90;;;;;;4972601;28;20046;-63
2022/10/03 12:04:42;;;;;;;3.63;1.55;;;24.40;99.90;;;;;;4972195;28;20081;-64
2022/10/03 12:10:45;;;;;;;4.32;1.80;;;25.60;99.90;;;;;;4972031;28;20034;-64
2022/10/03 12:13:20;;;;;;;4.47;1.90;;;26.20;99.90;;;;;;4971766;28;20038;-64
2022/10/03 12:15:53;;;;;;;3.88;1.50;;;26.30;98.80;;;;;;4971901;28;20059;-64
2022/10/03 12:18:52;;;;;;;6.15;1.70;;;26.30;98.60;;;;;;4971934;28;20057;-64
2022/10/03 12:21:23;;;;;;;2.28;1.40;;;25.40;98.20;;;;;;4971731;28;20073;-63
2022/10/03 12:24:17;;;;;;;5.50;1.65;;;25.70;98.60;;;;;;5007887;28;20037;-64
2022/10/03 12:26:51;;;;;;;2.60;1.63;;;24.90;98.60;;;;;;5010754;28;20018;-63
2022/10/03 12:29:20;;;;;;;4.72;1.70;;;24.50;99.30;;;;;;5050147;28;20120;-63
2022/10/03 12:32:20;;;;;;;3.95;1.60;;;24.30;99.90;;;;;;5052501;28;20071;-63
2022/10/03 12:34:58;;;;;;;4.80;1.70;;;24.90;99.90;;;;;;5052532;28;20506;-63
2022/10/03 12:37:59;;;;;;;4.03;1.63;;;25.60;99.90;;;;;;5052473;28;20029;-63
2022/10/03 12:40:33;;;;;;;4.20;2.00;;;25.60;99.90;;;;;;5049337;28;20032;-63
2022/10/03 12:43:14;;;;;;;5.45;1.65;;;25.90;99.90;;;;;;5051240;28;20654;-64
2022/10/03 12:45:47;;;;;;;4.07;1.77;;;25.80;99.30;;;;;;5065868;28;20024;-64
2022/10/03 12:48:35;;;;;;;2.90;1.88;;;25.80;99.90;;;;;;5072298;28;20564;-63
2022/10/03 12:51:19;;;;;;;3.67;1.60;;;25.90;99.90;;;;;;5072142;28;20036;-64
2022/10/03 12:54:29;;;;;;;2.88;1.42;;;25.90;99.70;;;;;;5071895;28;20039;-63
2022/10/03 12:57:20;;;;;;;2.75;1.67;;;25.70;99.60;;;;;;4989812;28;20029;-64
2022/10/03 13:00:15;;;;;;;3.17;1.48;;;26.00;99.90;;;;;;4990784;28;20034;-64
2022/10/03 13:03:15;;;;;;;3.83;1.70;;;25.50;97.80;;;;;;4979890;28;20041;-63
2022/10/03 13:06:05;;;;;;;3.15;1.60;;;25.10;99.40;;;;;;4990232;28;20134;-63
2022/10/03 13:08:52;;;;;;;3.70;1.67;;;24.80;98.20;;;;;;4990410;28;20030;-63
2022/10/03 13:11:31;;;;;;;3.75;1.70;;;24.50;98.00;;;;;;4989758;28;20050;-63
2022/10/03 13:14:20;;;;;;;2.95;1.52;;;24.00;99.30;;;;;;4990463;28;20444;-64
2022/10/03 13:16:58;;;;;;;4.53;1.38;;;24.30;98.40;;;;;;4990287;28;20186;-64
2022/10/03 13:19:33;;;;;;;4.22;1.50;;;24.50;98.20;;;;;;4990450;28;20046;-72
2022/10/03 13:22:20;;;;;;;4.50;1.40;;;24.50;99.20;;;;;;4990296;28;20504;-64
2022/10/03 13:24:49;;;;;;;2.88;1.50;;;24.90;99.20;;;;;;4990242;28;20402;-63
2022/10/03 13:27:34;;;;;;;2.53;1.30;;;25.10;97.20;;;;;;4990005;28;20476;-64
2022/10/03 13:30:20;;;;;;;3.90;1.30;;;24.20;97.00;;;;;;4958698;28;20046;-63
2022/10/03 13:33:01;;;;;;;3.50;1.58;;;24.00;97.80;;;;;;5009700;28;20066;-63
2022/10/03 13:36:01;;;;;;;3.25;1.40;;;23.80;98.20;;;;;;5009986;28;20104;-63
2022/10/03 13:39:01;;;;;;;3.65;1.30;;;23.80;98.50;;;;;;5009821;28;20057;-64
2022/10/03 13:41:34;;;;;;;3.72;1.35;;;24.00;98.20;;;;;;5009463;28;20037;-63
2022/10/03 13:44:30;;;;;;;4.55;1.50;;;23.70;98.60;;;;;;5009923;28;20034;-63
2022/10/03 13:47:14;;;;;;;4.53;1.63;;;24.20;99.70;;;;;;4990647;28;20096;-63
2022/10/03 13:50:03;;;;;;;6.30;1.60;;;24.40;99.70;;;;;;4990221;28;20056;-63
2022/10/03 13:52:49;;;;;;;4.65;1.67;;;24.10;99.70;;;;;;4990160;28;20100;-63
2022/10/03 13:55:25;;;;;;;3.92;1.63;;;24.40;99.90;;;;;;4979772;28;20038;-64
2022/10/03 13:58:00;;;;;;;5.22;1.83;;;24.10;99.90;;;;;;4990039;28;20485;-64
2022/10/03 14:00:36;;;;;;;6.70;1.58;;;24.30;99.90;;;;;;4990547;28;20043;-64
2022/10/03 14:03:37;;;;;;;5.38;1.77;;;24.40;99.90;;;;;;4990177;28;20436;-63
2022/10/03 14:06:15;;;;;;;6.88;1.55;;;24.50;99.90;;;;;;4934980;28;20491;-62
2022/10/03 14:08:59;;;;;;;2.50;1.30;;;24.20;99.90;;;;;;4990300;28;20451;-62
2022/10/03 14:11:41;;;;;;;5.38;1.52;;;24.10;99.70;;;;;;4989447;28;20049;-66
2022/10/03 14:14:40;;;;;;;5.45;1.70;;;24.20;99.90;;;;;;4990046;28;20026;-59
2022/10/03 14:17:23;;;;;;;3.58;1.50;;;24.10;99.90;;;;;;4992261;28;20042;-63
2022/10/03 14:20:14;;;;;;;4.50;1.40;;;24.00;99.90;;;;;;4993886;28;20033;-63
2022/10/03 14:22:51;;;;;;;4.38;1.55;;;24.00;99.90;;;;;;4993204;28;20065;-63
2022/10/03 14:25:34;;;;;;;5.90;1.50;;;24.10;99.90;;;;;;4993206;28;20138;-64
2022/10/03 14:28:12;;;;;;;4.90;1.40;;;24.00;99.90;;;;;;4993450;28;20022;-63
2022/10/03 14:30:51;;;;;;;5.05;1.70;;;23.70;99.90;;;;;;4993311;28;20062;-63
2022/10/03 14:33:24;;;;;;;3.30;1.70;;;23.60;99.90;;;;;;4993509;28;20038;-64